sensor_id;sensor_type;location;lat;lon;timestamp;P1;durP1;ratioP1;P2;durP2;ratioP2
359;SDS011;168;48.872;9.226;2023-11-19T00:00:07;4.00;;;2.97;;
359;SDS011;168;48.872;9.226;2023-11-19T00:02:39;3.87;;;3.47;;
359;SDS011;168;48.872;9.226;2023-11-19T00:05:06;3.77;;;3.00;;
359;SDS011;168;48.872;9.226;2023-11-19T00:07:36;5.17;;;3.60;;
359;SDS011;168;48.872;9.226;2023-11-19T00:10:07;3.03;;;2.53;;
359;SDS011;168;48.872;9.226;2023-11-19T00:12:38;3.80;;;2.90;;
359;SDS011;168;48.872;9.226;2023-11-19T00:15:07;3.90;;;3.17;;
359;SDS011;168;48.872;9.226;2023-11-19T00:17:36;3.10;;;2.80;;
359;SDS011;168;48.872;9.226;2023-11-19T00:20:10;3.30;;;3.00;;
359;SDS011;168;48.872;9.226;2023-11-19T00:22:38;4.57;;;2.67;;
359;SDS011;168;48.872;9.226;2023-11-19T00:25:06;3.93;;;2.70;;
359;SDS011;168;48.872;9.226;2023-11-19T00:27:34;3.90;;;2.50;;
359;SDS011;168;48.872;9.226;2023-11-19T00:30:03;3.30;;;3.00;;
359;SDS011;168;48.872;9.226;2023-11-19T00:32:32;3.70;;;2.87;;
359;SDS011;168;48.872;9.226;2023-11-19T00:35:01;3.70;;;3.40;;
359;SDS011;168;48.872;9.226;2023-11-19T00:37:29;4.47;;;3.27;;
359;SDS011;168;48.872;9.226;2023-11-19T00:39:56;3.30;;;2.93;;
359;SDS011;168;48.872;9.226;2023-11-19T00:42:24;4.10;;;3.70;;
359;SDS011;168;48.872;9.226;2023-11-19T00:44:52;3.93;;;3.53;;
359;SDS011;168;48.872;9.226;2023-11-19T00:47:21;4.13;;;3.53;;
359;SDS011;168;48.872;9.226;2023-11-19T00:49:48;4.60;;;3.30;;
359;SDS011;168;48.872;9.226;2023-11-19T00:52:17;3.47;;;3.17;;
359;SDS011;168;48.872;9.226;2023-11-19T00:54:48;4.00;;;3.60;;
359;SDS011;168;48.872;9.226;2023-11-19T00:57:16;4.40;;;3.47;;
359;SDS011;168;48.872;9.226;2023-11-19T00:59:44;4.57;;;3.47;;
359;SDS011;168;48.872;9.226;2023-11-19T01:02:13;4.23;;;3.83;;
359;SDS011;168;48.872;9.226;2023-11-19T01:04:41;5.40;;;3.73;;
359;SDS011;168;48.872;9.226;2023-11-19T01:07:10;4.20;;;3.40;;
359;SDS011;168;48.872;9.226;2023-11-19T01:09:41;4.60;;;3.87;;
359;SDS011;168;48.872;9.226;2023-11-19T01:12:09;4.10;;;3.70;;
359;SDS011;168;48.872;9.226;2023-11-19T01:14:36;4.00;;;3.60;;
359;SDS011;168;48.872;9.226;2023-11-19T01:17:04;4.10;;;3.70;;
359;SDS011;168;48.872;9.226;2023-11-19T01:19:31;4.37;;;3.60;;
359;SDS011;168;48.872;9.226;2023-11-19T01:21:59;4.37;;;3.50;;
359;SDS011;168;48.872;9.226;2023-11-19T01:24:27;6.13;;;4.00;;
359;SDS011;168;48.872;9.226;2023-11-19T01:26:58;3.70;;;3.27;;
359;SDS011;168;48.872;9.226;2023-11-19T01:29:25;4.47;;;2.90;;
359;SDS011;168;48.872;9.226;2023-11-19T01:31:53;4.63;;;3.60;;
359;SDS011;168;48.872;9.226;2023-11-19T01:34:20;4.20;;;3.23;;
359;SDS011;168;48.872;9.226;2023-11-19T01:36:48;3.60;;;3.20;;
359;SDS011;168;48.872;9.226;2023-11-19T01:39:15;3.50;;;3.20;;
359;SDS011;168;48.872;9.226;2023-11-19T01:41:43;4.17;;;3.20;;
359;SDS011;168;48.872;9.226;2023-11-19T01:44:12;4.63;;;3.60;;
359;SDS011;168;48.872;9.226;2023-11-19T01:46:40;5.40;;;2.90;;
359;SDS011;168;48.872;9.226;2023-11-19T01:49:08;5.10;;;3.00;;
359;SDS011;168;48.872;9.226;2023-11-19T01:51:37;2.97;;;2.67;;
359;SDS011;168;48.872;9.226;2023-11-19T01:54:05;4.50;;;3.20;;
359;SDS011;168;48.872;9.226;2023-11-19T01:56:34;4.43;;;3.07;;
359;SDS011;168;48.872;9.226;2023-11-19T01:59:02;4.23;;;2.40;;
359;SDS011;168;48.872;9.226;2023-11-19T02:01:36;4.03;;;2.83;;
359;SDS011;168;48.872;9.226;2023-11-19T02:04:05;3.30;;;2.67;;
359;SDS011;168;48.872;9.226;2023-11-19T02:06:33;3.83;;;2.60;;
359;SDS011;168;48.872;9.226;2023-11-19T02:09:03;3.10;;;2.73;;
359;SDS011;168;48.872;9.226;2023-11-19T02:11:33;3.70;;;2.70;;
359;SDS011;168;48.872;9.226;2023-11-19T02:14:01;2.97;;;2.60;;
359;SDS011;168;48.872;9.226;2023-11-19T02:16:29;3.50;;;2.57;;
359;SDS011;168;48.872;9.226;2023-11-19T02:18:58;5.40;;;2.97;;
359;SDS011;168;48.872;9.226;2023-11-19T02:21:25;3.60;;;2.60;;
359;SDS011;168;48.872;9.226;2023-11-19T02:23:52;3.00;;;2.60;;
359;SDS011;168;48.872;9.226;2023-11-19T02:26:23;3.43;;;2.40;;
359;SDS011;168;48.872;9.226;2023-11-19T02:28:55;3.70;;;2.73;;
359;SDS011;168;48.872;9.226;2023-11-19T02:31:22;3.97;;;3.50;;
359;SDS011;168;48.872;9.226;2023-11-19T02:33:50;2.80;;;2.50;;
359;SDS011;168;48.872;9.226;2023-11-19T02:36:17;6.00;;;2.90;;
359;SDS011;168;48.872;9.226;2023-11-19T02:38:47;2.60;;;2.30;;
359;SDS011;168;48.872;9.226;2023-11-19T02:41:15;3.40;;;2.23;;
359;SDS011;168;48.872;9.226;2023-11-19T02:43:42;2.90;;;2.60;;
359;SDS011;168;48.872;9.226;2023-11-19T02:46:11;3.80;;;2.37;;
359;SDS011;168;48.872;9.226;2023-11-19T02:48:38;2.67;;;2.30;;
359;SDS011;168;48.872;9.226;2023-11-19T02:51:06;4.00;;;2.70;;
359;SDS011;168;48.872;9.226;2023-11-19T02:53:34;3.70;;;2.83;;
359;SDS011;168;48.872;9.226;2023-11-19T02:56:02;4.20;;;2.93;;
359;SDS011;168;48.872;9.226;2023-11-19T02:58:42;3.10;;;2.80;;
359;SDS011;168;48.872;9.226;2023-11-19T03:01:11;3.93;;;3.30;;
359;SDS011;168;48.872;9.226;2023-11-19T03:03:48;4.10;;;3.70;;
359;SDS011;168;48.872;9.226;2023-11-19T03:06:20;4.23;;;3.20;;
359;SDS011;168;48.872;9.226;2023-11-19T03:08:48;4.00;;;3.20;;
359;SDS011;168;48.872;9.226;2023-11-19T03:11:15;3.17;;;2.87;;
359;SDS011;168;48.872;9.226;2023-11-19T03:13:43;3.43;;;3.13;;
359;SDS011;168;48.872;9.226;2023-11-19T03:16:12;3.80;;;3.20;;
359;SDS011;168;48.872;9.226;2023-11-19T03:18:39;3.50;;;3.00;;
359;SDS011;168;48.872;9.226;2023-11-19T03:21:06;3.90;;;3.50;;
359;SDS011;168;48.872;9.226;2023-11-19T03:23:34;3.40;;;3.10;;
359;SDS011;168;48.872;9.226;2023-11-19T03:26:03;4.00;;;3.00;;
359;SDS011;168;48.872;9.226;2023-11-19T03:28:31;3.70;;;3.20;;
359;SDS011;168;48.872;9.226;2023-11-19T03:30:58;3.73;;;3.00;;
359;SDS011;168;48.872;9.226;2023-11-19T03:33:27;3.33;;;3.03;;
359;SDS011;168;48.872;9.226;2023-11-19T03:35:56;7.70;;;3.50;;
359;SDS011;168;48.872;9.226;2023-11-19T03:38:23;3.17;;;2.80;;
359;SDS011;168;48.872;9.226;2023-11-19T03:40:51;3.20;;;2.63;;
359;SDS011;168;48.872;9.226;2023-11-19T03:43:18;4.10;;;3.57;;
359;SDS011;168;48.872;9.226;2023-11-19T03:45:46;3.90;;;3.20;;
359;SDS011;168;48.872;9.226;2023-11-19T03:48:13;3.80;;;3.33;;
359;SDS011;168;48.872;9.226;2023-11-19T03:50:44;4.63;;;3.07;;
359;SDS011;168;48.872;9.226;2023-11-19T03:53:11;5.00;;;4.50;;
359;SDS011;168;48.872;9.226;2023-11-19T03:55:39;3.97;;;3.37;;
359;SDS011;168;48.872;9.226;2023-11-19T03:58:06;3.90;;;3.47;;
359;SDS011;168;48.872;9.226;2023-11-19T04:00:34;4.17;;;3.70;;
359;SDS011;168;48.872;9.226;2023-11-19T04:03:01;4.57;;;4.10;;
359;SDS011;168;48.872;9.226;2023-11-19T04:05:30;4.73;;;4.20;;
359;SDS011;168;48.872;9.226;2023-11-19T04:07:59;4.20;;;3.80;;
359;SDS011;168;48.872;9.226;2023-11-19T04:10:27;4.20;;;3.80;;
359;SDS011;168;48.872;9.226;2023-11-19T04:12:54;4.20;;;3.80;;
359;SDS011;168;48.872;9.226;2023-11-19T04:15:22;5.20;;;4.70;;
359;SDS011;168;48.872;9.226;2023-11-19T04:17:49;4.90;;;4.10;;
359;SDS011;168;48.872;9.226;2023-11-19T04:20:17;4.90;;;4.47;;
359;SDS011;168;48.872;9.226;2023-11-19T04:22:44;4.70;;;4.30;;
359;SDS011;168;48.872;9.226;2023-11-19T04:25:13;3.70;;;3.33;;
359;SDS011;168;48.872;9.226;2023-11-19T04:27:40;4.20;;;3.80;;
359;SDS011;168;48.872;9.226;2023-11-19T04:30:08;3.53;;;3.23;;
359;SDS011;168;48.872;9.226;2023-11-19T04:32:36;3.93;;;3.10;;
359;SDS011;168;48.872;9.226;2023-11-19T04:35:04;3.50;;;2.60;;
359;SDS011;168;48.872;9.226;2023-11-19T04:37:32;4.17;;;2.70;;
359;SDS011;168;48.872;9.226;2023-11-19T04:40:00;3.07;;;2.77;;
359;SDS011;168;48.872;9.226;2023-11-19T04:42:29;2.70;;;2.30;;
359;SDS011;168;48.872;9.226;2023-11-19T04:44:57;2.83;;;2.33;;
359;SDS011;168;48.872;9.226;2023-11-19T04:47:25;2.70;;;2.30;;
359;SDS011;168;48.872;9.226;2023-11-19T04:49:52;2.77;;;2.47;;
359;SDS011;168;48.872;9.226;2023-11-19T04:52:19;3.07;;;2.10;;
359;SDS011;168;48.872;9.226;2023-11-19T04:54:47;2.60;;;2.30;;
359;SDS011;168;48.872;9.226;2023-11-19T04:57:14;2.60;;;2.10;;
359;SDS011;168;48.872;9.226;2023-11-19T04:59:43;2.30;;;1.70;;
359;SDS011;168;48.872;9.226;2023-11-19T05:02:11;2.43;;;1.87;;
359;SDS011;168;48.872;9.226;2023-11-19T05:04:42;2.50;;;1.97;;
359;SDS011;168;48.872;9.226;2023-11-19T05:07:09;2.30;;;1.43;;
359;SDS011;168;48.872;9.226;2023-11-19T05:09:37;2.10;;;1.83;;
359;SDS011;168;48.872;9.226;2023-11-19T05:12:04;1.83;;;1.50;;
359;SDS011;168;48.872;9.226;2023-11-19T05:14:35;2.03;;;1.30;;
359;SDS011;168;48.872;9.226;2023-11-19T05:17:04;2.20;;;1.57;;
359;SDS011;168;48.872;9.226;2023-11-19T05:19:33;1.93;;;1.40;;
359;SDS011;168;48.872;9.226;2023-11-19T05:22:00;2.30;;;1.53;;
359;SDS011;168;48.872;9.226;2023-11-19T05:24:28;2.63;;;1.60;;
359;SDS011;168;48.872;9.226;2023-11-19T05:26:56;2.90;;;2.07;;
359;SDS011;168;48.872;9.226;2023-11-19T05:29:23;2.20;;;1.43;;
359;SDS011;168;48.872;9.226;2023-11-19T05:31:51;2.23;;;1.30;;
359;SDS011;168;48.872;9.226;2023-11-19T05:34:19;2.00;;;1.40;;
359;SDS011;168;48.872;9.226;2023-11-19T05:36:47;2.60;;;1.30;;
359;SDS011;168;48.872;9.226;2023-11-19T05:39:15;1.63;;;0.97;;
359;SDS011;168;48.872;9.226;2023-11-19T05:41:43;1.40;;;0.87;;
359;SDS011;168;48.872;9.226;2023-11-19T05:44:10;2.90;;;1.10;;
359;SDS011;168;48.872;9.226;2023-11-19T05:46:38;2.47;;;0.93;;
359;SDS011;168;48.872;9.226;2023-11-19T05:49:08;1.20;;;0.60;;
359;SDS011;168;48.872;9.226;2023-11-19T05:51:37;1.27;;;0.53;;
359;SDS011;168;48.872;9.226;2023-11-19T05:54:06;1.40;;;0.70;;
359;SDS011;168;48.872;9.226;2023-11-19T05:56:33;1.20;;;0.57;;
359;SDS011;168;48.872;9.226;2023-11-19T05:59:01;1.20;;;0.50;;
359;SDS011;168;48.872;9.226;2023-11-19T06:01:33;2.07;;;0.57;;
359;SDS011;168;48.872;9.226;2023-11-19T06:04:02;1.50;;;0.70;;
359;SDS011;168;48.872;9.226;2023-11-19T06:06:30;3.30;;;1.10;;
359;SDS011;168;48.872;9.226;2023-11-19T06:08:58;3.60;;;0.50;;
359;SDS011;168;48.872;9.226;2023-11-19T06:11:28;1.10;;;0.50;;
359;SDS011;168;48.872;9.226;2023-11-19T06:13:56;1.53;;;0.57;;
359;SDS011;168;48.872;9.226;2023-11-19T06:16:23;1.87;;;0.50;;
359;SDS011;168;48.872;9.226;2023-11-19T06:18:51;1.37;;;0.87;;
359;SDS011;168;48.872;9.226;2023-11-19T06:21:19;1.67;;;1.10;;
359;SDS011;168;48.872;9.226;2023-11-19T06:23:46;2.70;;;1.03;;
359;SDS011;168;48.872;9.226;2023-11-19T06:26:16;1.40;;;0.70;;
359;SDS011;168;48.872;9.226;2023-11-19T06:28:44;2.07;;;0.80;;
359;SDS011;168;48.872;9.226;2023-11-19T06:31:12;2.13;;;0.80;;
359;SDS011;168;48.872;9.226;2023-11-19T06:33:41;1.37;;;0.70;;
359;SDS011;168;48.872;9.226;2023-11-19T06:36:09;2.23;;;0.73;;
359;SDS011;168;48.872;9.226;2023-11-19T06:38:36;2.23;;;0.70;;
359;SDS011;168;48.872;9.226;2023-11-19T06:41:06;4.40;;;0.60;;
359;SDS011;168;48.872;9.226;2023-11-19T06:43:38;1.07;;;0.47;;
359;SDS011;168;48.872;9.226;2023-11-19T06:46:14;1.50;;;0.60;;
359;SDS011;168;48.872;9.226;2023-11-19T06:48:42;1.30;;;0.40;;
359;SDS011;168;48.872;9.226;2023-11-19T06:51:12;1.30;;;0.50;;
359;SDS011;168;48.872;9.226;2023-11-19T06:53:40;1.10;;;0.47;;
359;SDS011;168;48.872;9.226;2023-11-19T06:56:17;1.40;;;0.60;;
359;SDS011;168;48.872;9.226;2023-11-19T06:58:46;1.50;;;0.83;;
359;SDS011;168;48.872;9.226;2023-11-19T07:01:14;1.20;;;0.50;;
359;SDS011;168;48.872;9.226;2023-11-19T07:03:49;1.50;;;0.63;;
359;SDS011;168;48.872;9.226;2023-11-19T07:06:17;1.20;;;0.40;;
359;SDS011;168;48.872;9.226;2023-11-19T07:08:45;1.50;;;0.70;;
359;SDS011;168;48.872;9.226;2023-11-19T07:11:12;1.40;;;0.50;;
359;SDS011;168;48.872;9.226;2023-11-19T07:13:42;1.20;;;0.50;;
359;SDS011;168;48.872;9.226;2023-11-19T07:16:15;1.87;;;0.50;;
359;SDS011;168;48.872;9.226;2023-11-19T07:18:42;1.20;;;0.53;;
359;SDS011;168;48.872;9.226;2023-11-19T07:21:10;1.10;;;0.40;;
359;SDS011;168;48.872;9.226;2023-11-19T07:26:42;1.30;;;0.50;;
359;SDS011;168;48.872;9.226;2023-11-19T07:29:10;1.50;;;0.60;;
359;SDS011;168;48.872;9.226;2023-11-19T07:31:42;1.20;;;0.50;;
359;SDS011;168;48.872;9.226;2023-11-19T07:34:14;1.20;;;0.50;;
359;SDS011;168;48.872;9.226;2023-11-19T07:36:45;1.30;;;0.63;;
359;SDS011;168;48.872;9.226;2023-11-19T07:39:18;1.90;;;0.60;;
359;SDS011;168;48.872;9.226;2023-11-19T07:44:44;2.50;;;0.70;;
359;SDS011;168;48.872;9.226;2023-11-19T07:47:13;1.20;;;0.50;;
359;SDS011;168;48.872;9.226;2023-11-19T07:49:40;1.60;;;0.90;;
359;SDS011;168;48.872;9.226;2023-11-19T07:52:09;1.20;;;0.50;;
359;SDS011;168;48.872;9.226;2023-11-19T07:54:37;1.50;;;0.70;;
359;SDS011;168;48.872;9.226;2023-11-19T07:57:04;1.63;;;0.70;;
359;SDS011;168;48.872;9.226;2023-11-19T07:59:32;2.37;;;0.60;;
359;SDS011;168;48.872;9.226;2023-11-19T08:01:59;1.40;;;0.53;;
359;SDS011;168;48.872;9.226;2023-11-19T08:04:28;3.90;;;0.80;;
359;SDS011;168;48.872;9.226;2023-11-19T08:06:55;1.40;;;0.60;;
359;SDS011;168;48.872;9.226;2023-11-19T08:09:24;1.67;;;0.60;;
359;SDS011;168;48.872;9.226;2023-11-19T08:11:55;2.03;;;1.00;;
359;SDS011;168;48.872;9.226;2023-11-19T08:14:23;1.40;;;0.50;;
359;SDS011;168;48.872;9.226;2023-11-19T08:16:50;1.50;;;0.50;;
359;SDS011;168;48.872;9.226;2023-11-19T08:19:18;1.77;;;0.50;;
359;SDS011;168;48.872;9.226;2023-11-19T08:21:50;1.57;;;0.53;;
359;SDS011;168;48.872;9.226;2023-11-19T08:24:18;4.10;;;0.70;;
359;SDS011;168;48.872;9.226;2023-11-19T08:26:48;2.37;;;0.80;;
359;SDS011;168;48.872;9.226;2023-11-19T08:29:15;2.13;;;0.93;;
359;SDS011;168;48.872;9.226;2023-11-19T08:31:43;1.60;;;0.60;;
359;SDS011;168;48.872;9.226;2023-11-19T08:34:11;1.63;;;0.80;;
359;SDS011;168;48.872;9.226;2023-11-19T08:36:38;1.53;;;0.70;;
359;SDS011;168;48.872;9.226;2023-11-19T08:39:07;1.40;;;0.40;;
359;SDS011;168;48.872;9.226;2023-11-19T08:41:45;1.67;;;0.60;;
359;SDS011;168;48.872;9.226;2023-11-19T08:44:13;1.30;;;0.60;;
359;SDS011;168;48.872;9.226;2023-11-19T08:46:46;1.93;;;0.50;;
359;SDS011;168;48.872;9.226;2023-11-19T08:49:14;1.93;;;0.50;;
359;SDS011;168;48.872;9.226;2023-11-19T08:51:41;1.40;;;0.70;;
359;SDS011;168;48.872;9.226;2023-11-19T08:54:10;1.27;;;0.47;;
359;SDS011;168;48.872;9.226;2023-11-19T08:56:38;1.30;;;0.50;;
359;SDS011;168;48.872;9.226;2023-11-19T08:59:05;1.20;;;0.53;;
359;SDS011;168;48.872;9.226;2023-11-19T09:01:37;1.60;;;0.60;;
359;SDS011;168;48.872;9.226;2023-11-19T09:04:30;1.90;;;0.87;;
359;SDS011;168;48.872;9.226;2023-11-19T09:07:03;1.60;;;0.83;;
359;SDS011;168;48.872;9.226;2023-11-19T09:09:32;2.30;;;0.57;;
359;SDS011;168;48.872;9.226;2023-11-19T09:12:03;2.43;;;0.93;;
359;SDS011;168;48.872;9.226;2023-11-19T09:14:34;1.50;;;0.73;;
359;SDS011;168;48.872;9.226;2023-11-19T09:17:03;1.60;;;0.83;;
359;SDS011;168;48.872;9.226;2023-11-19T09:19:32;2.80;;;0.80;;
359;SDS011;168;48.872;9.226;2023-11-19T09:22:10;2.03;;;0.60;;
359;SDS011;168;48.872;9.226;2023-11-19T09:24:39;1.87;;;0.87;;
359;SDS011;168;48.872;9.226;2023-11-19T09:33:48;2.03;;;0.70;;
359;SDS011;168;48.872;9.226;2023-11-19T09:39:59;2.00;;;0.90;;
359;SDS011;168;48.872;9.226;2023-11-19T09:45:12;2.90;;;1.17;;
359;SDS011;168;48.872;9.226;2023-11-19T09:47:53;2.33;;;0.70;;
359;SDS011;168;48.872;9.226;2023-11-19T09:53:16;4.27;;;1.43;;
359;SDS011;168;48.872;9.226;2023-11-19T09:55:48;1.60;;;0.80;;
359;SDS011;168;48.872;9.226;2023-11-19T09:58:16;2.73;;;1.27;;
359;SDS011;168;48.872;9.226;2023-11-19T10:00:53;6.40;;;5.50;;
359;SDS011;168;48.872;9.226;2023-11-19T10:03:20;8.67;;;6.87;;
359;SDS011;168;48.872;9.226;2023-11-19T10:05:50;32.63;;;22.30;;
359;SDS011;168;48.872;9.226;2023-11-19T10:08:18;19.30;;;15.75;;
359;SDS011;168;48.872;9.226;2023-11-19T10:10:50;7.57;;;5.40;;
359;SDS011;168;48.872;9.226;2023-11-19T10:13:25;2.13;;;1.43;;
359;SDS011;168;48.872;9.226;2023-11-19T10:15:55;2.73;;;0.87;;
359;SDS011;168;48.872;9.226;2023-11-19T10:18:24;1.87;;;0.87;;
359;SDS011;168;48.872;9.226;2023-11-19T10:20:54;3.63;;;1.07;;
359;SDS011;168;48.872;9.226;2023-11-19T10:26:59;4.03;;;1.27;;
359;SDS011;168;48.872;9.226;2023-11-19T10:29:29;3.20;;;1.40;;
359;SDS011;168;48.872;9.226;2023-11-19T10:34:35;2.40;;;0.97;;
359;SDS011;168;48.872;9.226;2023-11-19T10:40:05;2.63;;;1.00;;
359;SDS011;168;48.872;9.226;2023-11-19T10:45:29;1.70;;;0.77;;
359;SDS011;168;48.872;9.226;2023-11-19T10:54:50;2.43;;;0.70;;
359;SDS011;168;48.872;9.226;2023-11-19T10:57:26;2.10;;;0.80;;
359;SDS011;168;48.872;9.226;2023-11-19T11:00:00;1.83;;;0.77;;
359;SDS011;168;48.872;9.226;2023-11-19T11:02:47;1.97;;;0.50;;
359;SDS011;168;48.872;9.226;2023-11-19T11:08:29;2.50;;;0.77;;
359;SDS011;168;48.872;9.226;2023-11-19T11:12:16;3.90;;;0.80;;
359;SDS011;168;48.872;9.226;2023-11-19T11:14:26;2.10;;;0.80;;
359;SDS011;168;48.872;9.226;2023-11-19T11:17:04;3.17;;;0.70;;
359;SDS011;168;48.872;9.226;2023-11-19T11:19:33;2.47;;;0.67;;
359;SDS011;168;48.872;9.226;2023-11-19T11:22:02;1.77;;;0.77;;
359;SDS011;168;48.872;9.226;2023-11-19T11:24:40;2.27;;;0.80;;
359;SDS011;168;48.872;9.226;2023-11-19T11:30:37;2.57;;;0.90;;
359;SDS011;168;48.872;9.226;2023-11-19T12:03:20;2.17;;;0.90;;
359;SDS011;168;48.872;9.226;2023-11-19T12:08:25;2.43;;;1.17;;
359;SDS011;168;48.872;9.226;2023-11-19T12:10:54;2.50;;;0.60;;
359;SDS011;168;48.872;9.226;2023-11-19T12:16:14;2.60;;;0.80;;
359;SDS011;168;48.872;9.226;2023-11-19T12:18:41;2.73;;;1.10;;
359;SDS011;168;48.872;9.226;2023-11-19T12:21:09;2.70;;;1.13;;
359;SDS011;168;48.872;9.226;2023-11-19T12:23:43;3.37;;;1.33;;
359;SDS011;168;48.872;9.226;2023-11-19T12:26:32;2.63;;;1.30;;
359;SDS011;168;48.872;9.226;2023-11-19T12:29:03;2.67;;;1.27;;
359;SDS011;168;48.872;9.226;2023-11-19T12:31:32;2.53;;;1.00;;
359;SDS011;168;48.872;9.226;2023-11-19T12:34:05;1.80;;;0.83;;
359;SDS011;168;48.872;9.226;2023-11-19T12:36:37;2.57;;;0.97;;
359;SDS011;168;48.872;9.226;2023-11-19T12:39:06;2.30;;;0.80;;
359;SDS011;168;48.872;9.226;2023-11-19T12:41:48;2.80;;;0.80;;
359;SDS011;168;48.872;9.226;2023-11-19T12:44:18;2.50;;;0.80;;
359;SDS011;168;48.872;9.226;2023-11-19T12:46:45;3.47;;;0.90;;
359;SDS011;168;48.872;9.226;2023-11-19T12:49:13;2.00;;;0.80;;
359;SDS011;168;48.872;9.226;2023-11-19T12:51:40;3.00;;;0.77;;
359;SDS011;168;48.872;9.226;2023-11-19T12:54:08;3.83;;;0.80;;
359;SDS011;168;48.872;9.226;2023-11-19T12:56:35;2.40;;;0.97;;
359;SDS011;168;48.872;9.226;2023-11-19T12:59:12;2.47;;;1.17;;
359;SDS011;168;48.872;9.226;2023-11-19T13:01:41;1.70;;;0.80;;
359;SDS011;168;48.872;9.226;2023-11-19T13:04:19;2.07;;;0.73;;
359;SDS011;168;48.872;9.226;2023-11-19T13:06:47;2.00;;;0.70;;
359;SDS011;168;48.872;9.226;2023-11-19T13:09:23;2.13;;;0.80;;
359;SDS011;168;48.872;9.226;2023-11-19T13:11:52;3.10;;;0.93;;
359;SDS011;168;48.872;9.226;2023-11-19T13:14:19;2.63;;;0.70;;
359;SDS011;168;48.872;9.226;2023-11-19T13:16:48;2.17;;;0.80;;
359;SDS011;168;48.872;9.226;2023-11-19T13:19:16;2.57;;;0.80;;
359;SDS011;168;48.872;9.226;2023-11-19T13:21:44;1.60;;;0.70;;
359;SDS011;168;48.872;9.226;2023-11-19T13:24:12;1.83;;;0.90;;
359;SDS011;168;48.872;9.226;2023-11-19T13:26:40;2.97;;;1.03;;
359;SDS011;168;48.872;9.226;2023-11-19T13:29:07;1.53;;;0.70;;
359;SDS011;168;48.872;9.226;2023-11-19T13:31:36;2.10;;;0.90;;
359;SDS011;168;48.872;9.226;2023-11-19T13:34:05;1.97;;;0.90;;
359;SDS011;168;48.872;9.226;2023-11-19T13:36:33;3.30;;;0.87;;
359;SDS011;168;48.872;9.226;2023-11-19T13:39:00;2.53;;;0.90;;
359;SDS011;168;48.872;9.226;2023-11-19T13:41:28;3.40;;;0.80;;
359;SDS011;168;48.872;9.226;2023-11-19T13:43:55;2.80;;;1.23;;
359;SDS011;168;48.872;9.226;2023-11-19T13:46:23;2.07;;;0.80;;
359;SDS011;168;48.872;9.226;2023-11-19T13:48:50;1.90;;;0.83;;
359;SDS011;168;48.872;9.226;2023-11-19T13:51:19;2.17;;;0.90;;
359;SDS011;168;48.872;9.226;2023-11-19T13:53:46;2.67;;;1.00;;
359;SDS011;168;48.872;9.226;2023-11-19T13:56:13;2.17;;;1.10;;
359;SDS011;168;48.872;9.226;2023-11-19T13:58:41;3.70;;;1.20;;
359;SDS011;168;48.872;9.226;2023-11-19T14:01:08;3.20;;;0.90;;
359;SDS011;168;48.872;9.226;2023-11-19T14:03:38;2.97;;;1.10;;
359;SDS011;168;48.872;9.226;2023-11-19T14:06:05;2.27;;;1.10;;
359;SDS011;168;48.872;9.226;2023-11-19T14:08:35;1.70;;;0.83;;
359;SDS011;168;48.872;9.226;2023-11-19T14:11:03;3.33;;;0.90;;
359;SDS011;168;48.872;9.226;2023-11-19T14:13:30;1.90;;;0.73;;
359;SDS011;168;48.872;9.226;2023-11-19T14:15:58;2.10;;;0.80;;
359;SDS011;168;48.872;9.226;2023-11-19T14:18:26;1.87;;;0.80;;
359;SDS011;168;48.872;9.226;2023-11-19T14:20:53;1.77;;;0.73;;
359;SDS011;168;48.872;9.226;2023-11-19T14:23:21;2.73;;;0.80;;
359;SDS011;168;48.872;9.226;2023-11-19T14:25:51;2.17;;;0.80;;
359;SDS011;168;48.872;9.226;2023-11-19T14:28:18;1.90;;;0.70;;
359;SDS011;168;48.872;9.226;2023-11-19T14:30:45;2.17;;;1.00;;
359;SDS011;168;48.872;9.226;2023-11-19T14:33:19;1.63;;;0.70;;
359;SDS011;168;48.872;9.226;2023-11-19T14:35:47;2.00;;;0.70;;
359;SDS011;168;48.872;9.226;2023-11-19T14:38:14;1.63;;;0.70;;
359;SDS011;168;48.872;9.226;2023-11-19T14:40:42;1.50;;;0.60;;
359;SDS011;168;48.872;9.226;2023-11-19T14:43:11;1.97;;;0.90;;
359;SDS011;168;48.872;9.226;2023-11-19T14:45:40;2.50;;;1.10;;
359;SDS011;168;48.872;9.226;2023-11-19T14:48:08;1.50;;;0.60;;
359;SDS011;168;48.872;9.226;2023-11-19T14:50:35;1.87;;;0.70;;
359;SDS011;168;48.872;9.226;2023-11-19T14:53:03;2.33;;;1.20;;
359;SDS011;168;48.872;9.226;2023-11-19T14:55:30;2.77;;;1.00;;
359;SDS011;168;48.872;9.226;2023-11-19T14:57:58;2.20;;;1.20;;
359;SDS011;168;48.872;9.226;2023-11-19T15:00:27;2.20;;;0.90;;
359;SDS011;168;48.872;9.226;2023-11-19T15:02:54;1.90;;;1.00;;
359;SDS011;168;48.872;9.226;2023-11-19T15:05:22;2.80;;;1.00;;
359;SDS011;168;48.872;9.226;2023-11-19T15:07:49;2.07;;;1.00;;
359;SDS011;168;48.872;9.226;2023-11-19T15:10:16;4.63;;;1.60;;
359;SDS011;168;48.872;9.226;2023-11-19T15:12:44;2.10;;;1.20;;
359;SDS011;168;48.872;9.226;2023-11-19T15:15:11;2.00;;;0.90;;
359;SDS011;168;48.872;9.226;2023-11-19T15:17:40;3.03;;;1.10;;
359;SDS011;168;48.872;9.226;2023-11-19T15:20:08;2.83;;;1.30;;
359;SDS011;168;48.872;9.226;2023-11-19T15:22:38;2.00;;;1.10;;
359;SDS011;168;48.872;9.226;2023-11-19T15:25:07;2.13;;;0.80;;
359;SDS011;168;48.872;9.226;2023-11-19T15:27:35;2.00;;;1.13;;
359;SDS011;168;48.872;9.226;2023-11-19T15:30:03;2.17;;;0.80;;
359;SDS011;168;48.872;9.226;2023-11-19T15:32:31;2.57;;;1.13;;
359;SDS011;168;48.872;9.226;2023-11-19T15:35:00;2.57;;;1.20;;
359;SDS011;168;48.872;9.226;2023-11-19T15:37:28;1.97;;;0.80;;
359;SDS011;168;48.872;9.226;2023-11-19T15:39:56;1.73;;;0.90;;
359;SDS011;168;48.872;9.226;2023-11-19T15:42:24;2.20;;;1.13;;
359;SDS011;168;48.872;9.226;2023-11-19T15:44:51;2.77;;;0.93;;
359;SDS011;168;48.872;9.226;2023-11-19T15:47:18;2.13;;;0.70;;
359;SDS011;168;48.872;9.226;2023-11-19T15:49:47;1.97;;;1.00;;
359;SDS011;168;48.872;9.226;2023-11-19T15:52:16;2.23;;;0.90;;
359;SDS011;168;48.872;9.226;2023-11-19T15:54:47;2.63;;;1.10;;
359;SDS011;168;48.872;9.226;2023-11-19T15:57:15;1.93;;;0.80;;
359;SDS011;168;48.872;9.226;2023-11-19T15:59:43;2.50;;;1.10;;
359;SDS011;168;48.872;9.226;2023-11-19T16:02:10;2.43;;;1.37;;
359;SDS011;168;48.872;9.226;2023-11-19T16:04:38;2.13;;;1.17;;
359;SDS011;168;48.872;9.226;2023-11-19T16:07:05;1.90;;;0.90;;
359;SDS011;168;48.872;9.226;2023-11-19T16:09:34;2.60;;;1.40;;
359;SDS011;168;48.872;9.226;2023-11-19T16:12:03;2.50;;;0.93;;
359;SDS011;168;48.872;9.226;2023-11-19T16:14:31;2.73;;;1.10;;
359;SDS011;168;48.872;9.226;2023-11-19T16:16:58;2.00;;;1.10;;
359;SDS011;168;48.872;9.226;2023-11-19T16:19:26;3.43;;;1.70;;
359;SDS011;168;48.872;9.226;2023-11-19T16:21:53;5.07;;;1.47;;
359;SDS011;168;48.872;9.226;2023-11-19T16:24:20;3.20;;;1.40;;
359;SDS011;168;48.872;9.226;2023-11-19T16:26:49;3.37;;;1.80;;
359;SDS011;168;48.872;9.226;2023-11-19T16:29:16;2.87;;;1.30;;
359;SDS011;168;48.872;9.226;2023-11-19T16:31:45;3.07;;;1.37;;
359;SDS011;168;48.872;9.226;2023-11-19T16:34:14;2.67;;;1.30;;
359;SDS011;168;48.872;9.226;2023-11-19T16:36:41;2.20;;;1.50;;
359;SDS011;168;48.872;9.226;2023-11-19T16:39:09;2.90;;;1.17;;
359;SDS011;168;48.872;9.226;2023-11-19T16:41:38;2.73;;;1.73;;
359;SDS011;168;48.872;9.226;2023-11-19T16:44:07;2.90;;;1.30;;
359;SDS011;168;48.872;9.226;2023-11-19T16:46:35;5.70;;;2.30;;
359;SDS011;168;48.872;9.226;2023-11-19T16:49:02;3.10;;;1.33;;
359;SDS011;168;48.872;9.226;2023-11-19T16:51:30;1.90;;;1.00;;
359;SDS011;168;48.872;9.226;2023-11-19T16:53:57;3.60;;;1.10;;
359;SDS011;168;48.872;9.226;2023-11-19T16:56:24;4.87;;;1.23;;
359;SDS011;168;48.872;9.226;2023-11-19T16:58:51;3.00;;;1.57;;
359;SDS011;168;48.872;9.226;2023-11-19T17:01:20;2.53;;;1.40;;
359;SDS011;168;48.872;9.226;2023-11-19T17:03:47;3.07;;;1.57;;
359;SDS011;168;48.872;9.226;2023-11-19T17:06:15;2.97;;;1.87;;
359;SDS011;168;48.872;9.226;2023-11-19T17:08:42;2.57;;;1.50;;
359;SDS011;168;48.872;9.226;2023-11-19T17:11:09;2.70;;;1.50;;
359;SDS011;168;48.872;9.226;2023-11-19T17:13:37;2.43;;;1.40;;
359;SDS011;168;48.872;9.226;2023-11-19T17:16:04;3.83;;;1.70;;
359;SDS011;168;48.872;9.226;2023-11-19T17:18:34;3.70;;;1.57;;